sensor_id;sensor_type;location;lat;lon;timestamp;P1;durP1;ratioP1;P2;durP2;ratioP2
57744;SDS011;58941;50.168;4.410;2024-01-15T00:00:17;9.93;;;6.32;;
57744;SDS011;58941;50.168;4.410;2024-01-15T00:02:42;10.00;;;6.13;;
57744;SDS011;58941;50.168;4.410;2024-01-15T00:05:08;8.55;;;5.47;;
57744;SDS011;58941;50.168;4.410;2024-01-15T00:07:35;10.02;;;6.38;;
57744;SDS011;58941;50.168;4.410;2024-01-15T00:10:00;11.55;;;6.40;;
57744;SDS011;58941;50.168;4.410;2024-01-15T00:12:26;12.20;;;6.97;;
57744;SDS011;58941;50.168;4.410;2024-01-15T00:14:52;10.45;;;6.20;;
57744;SDS011;58941;50.168;4.410;2024-01-15T00:17:17;9.77;;;6.63;;
57744;SDS011;58941;50.168;4.410;2024-01-15T00:19:42;9.65;;;5.45;;
57744;SDS011;58941;50.168;4.410;2024-01-15T00:22:08;10.93;;;5.88;;
57744;SDS011;58941;50.168;4.410;2024-01-15T00:24:33;9.57;;;6.10;;
57744;SDS011;58941;50.168;4.410;2024-01-15T00:26:59;9.40;;;5.70;;
57744;SDS011;58941;50.168;4.410;2024-01-15T00:29:24;10.48;;;5.97;;
57744;SDS011;58941;50.168;4.410;2024-01-15T00:31:49;10.43;;;6.18;;
57744;SDS011;58941;50.168;4.410;2024-01-15T00:34:15;12.32;;;6.13;;
57744;SDS011;58941;50.168;4.410;2024-01-15T00:36:40;10.70;;;6.32;;
57744;SDS011;58941;50.168;4.410;2024-01-15T00:39:05;9.30;;;5.85;;
57744;SDS011;58941;50.168;4.410;2024-01-15T00:41:31;11.85;;;6.30;;
57744;SDS011;58941;50.168;4.410;2024-01-15T00:43:56;10.13;;;5.78;;
57744;SDS011;58941;50.168;4.410;2024-01-15T00:46:22;9.13;;;5.90;;
57744;SDS011;58941;50.168;4.410;2024-01-15T00:48:47;9.50;;;5.70;;
57744;SDS011;58941;50.168;4.410;2024-01-15T00:51:13;8.75;;;5.43;;
57744;SDS011;58941;50.168;4.410;2024-01-15T00:53:38;9.43;;;5.63;;
57744;SDS011;58941;50.168;4.410;2024-01-15T00:56:04;9.77;;;6.13;;
57744;SDS011;58941;50.168;4.410;2024-01-15T00:58:29;10.05;;;6.38;;
57744;SDS011;58941;50.168;4.410;2024-01-15T01:00:55;10.07;;;5.40;;
57744;SDS011;58941;50.168;4.410;2024-01-15T01:03:20;9.38;;;5.80;;
57744;SDS011;58941;50.168;4.410;2024-01-15T01:05:46;9.48;;;5.45;;
57744;SDS011;58941;50.168;4.410;2024-01-15T01:08:13;10.10;;;5.65;;
57744;SDS011;58941;50.168;4.410;2024-01-15T01:10:38;9.00;;;5.68;;
57744;SDS011;58941;50.168;4.410;2024-01-15T01:13:04;7.82;;;5.22;;
57744;SDS011;58941;50.168;4.410;2024-01-15T01:15:29;8.70;;;5.68;;
57744;SDS011;58941;50.168;4.410;2024-01-15T01:17:55;7.95;;;5.47;;
57744;SDS011;58941;50.168;4.410;2024-01-15T01:20:20;8.65;;;5.50;;
57744;SDS011;58941;50.168;4.410;2024-01-15T01:22:45;9.70;;;5.43;;
57744;SDS011;58941;50.168;4.410;2024-01-15T01:25:11;9.18;;;5.53;;
57744;SDS011;58941;50.168;4.410;2024-01-15T01:27:36;9.90;;;5.60;;
57744;SDS011;58941;50.168;4.410;2024-01-15T01:30:02;13.23;;;6.90;;
57744;SDS011;58941;50.168;4.410;2024-01-15T01:32:28;9.05;;;5.90;;
57744;SDS011;58941;50.168;4.410;2024-01-15T01:34:53;8.95;;;5.50;;
57744;SDS011;58941;50.168;4.410;2024-01-15T01:37:19;10.60;;;5.85;;
57744;SDS011;58941;50.168;4.410;2024-01-15T01:39:45;10.00;;;5.30;;
57744;SDS011;58941;50.168;4.410;2024-01-15T01:42:11;10.27;;;6.22;;
57744;SDS011;58941;50.168;4.410;2024-01-15T01:44:37;8.57;;;5.45;;
57744;SDS011;58941;50.168;4.410;2024-01-15T01:47:02;9.80;;;5.90;;
57744;SDS011;58941;50.168;4.410;2024-01-15T01:49:28;8.68;;;5.65;;
57744;SDS011;58941;50.168;4.410;2024-01-15T01:51:56;8.52;;;5.38;;
57744;SDS011;58941;50.168;4.410;2024-01-15T01:54:22;9.38;;;5.82;;
57744;SDS011;58941;50.168;4.410;2024-01-15T01:56:47;8.70;;;4.72;;
57744;SDS011;58941;50.168;4.410;2024-01-15T01:59:14;9.77;;;5.60;;
57744;SDS011;58941;50.168;4.410;2024-01-15T02:01:39;8.15;;;5.07;;
57744;SDS011;58941;50.168;4.410;2024-01-15T02:04:05;9.80;;;5.75;;
57744;SDS011;58941;50.168;4.410;2024-01-15T02:06:31;8.05;;;6.07;;
57744;SDS011;58941;50.168;4.410;2024-01-15T02:08:57;8.80;;;5.15;;
57744;SDS011;58941;50.168;4.410;2024-01-15T02:11:22;9.00;;;5.78;;
57744;SDS011;58941;50.168;4.410;2024-01-15T02:13:48;8.40;;;5.07;;
57744;SDS011;58941;50.168;4.410;2024-01-15T02:16:14;7.65;;;4.75;;
57744;SDS011;58941;50.168;4.410;2024-01-15T02:18:42;7.40;;;4.93;;
57744;SDS011;58941;50.168;4.410;2024-01-15T02:21:08;9.13;;;5.72;;
57744;SDS011;58941;50.168;4.410;2024-01-15T02:23:34;9.20;;;5.10;;
57744;SDS011;58941;50.168;4.410;2024-01-15T02:25:59;7.63;;;4.82;;
57744;SDS011;58941;50.168;4.410;2024-01-15T02:28:25;9.27;;;5.40;;
57744;SDS011;58941;50.168;4.410;2024-01-15T02:30:51;7.95;;;4.93;;
57744;SDS011;58941;50.168;4.410;2024-01-15T02:33:16;7.90;;;5.25;;
57744;SDS011;58941;50.168;4.410;2024-01-15T02:35:42;8.27;;;5.00;;
57744;SDS011;58941;50.168;4.410;2024-01-15T02:38:07;8.88;;;4.88;;
57744;SDS011;58941;50.168;4.410;2024-01-15T02:40:33;8.00;;;4.97;;
57744;SDS011;58941;50.168;4.410;2024-01-15T02:42:59;6.30;;;4.25;;
57744;SDS011;58941;50.168;4.410;2024-01-15T02:45:25;6.28;;;4.65;;
57744;SDS011;58941;50.168;4.410;2024-01-15T02:47:50;6.75;;;4.68;;
57744;SDS011;58941;50.168;4.410;2024-01-15T02:50:16;7.38;;;4.47;;
57744;SDS011;58941;50.168;4.410;2024-01-15T02:52:41;6.80;;;4.43;;
57744;SDS011;58941;50.168;4.410;2024-01-15T02:55:07;7.32;;;4.80;;
57744;SDS011;58941;50.168;4.410;2024-01-15T02:57:33;7.20;;;4.70;;
57744;SDS011;58941;50.168;4.410;2024-01-15T02:59:59;7.57;;;4.10;;
57744;SDS011;58941;50.168;4.410;2024-01-15T03:02:25;7.55;;;4.50;;
57744;SDS011;58941;50.168;4.410;2024-01-15T03:04:50;7.85;;;4.72;;
57744;SDS011;58941;50.168;4.410;2024-01-15T03:07:16;6.85;;;4.55;;
57744;SDS011;58941;50.168;4.410;2024-01-15T03:09:41;7.57;;;4.43;;
57744;SDS011;58941;50.168;4.410;2024-01-15T03:12:07;6.60;;;4.13;;
57744;SDS011;58941;50.168;4.410;2024-01-15T03:14:32;7.47;;;4.40;;
57744;SDS011;58941;50.168;4.410;2024-01-15T03:16:58;5.72;;;3.92;;
57744;SDS011;58941;50.168;4.410;2024-01-15T03:19:23;5.68;;;4.03;;
57744;SDS011;58941;50.168;4.410;2024-01-15T03:21:49;7.55;;;4.50;;
57744;SDS011;58941;50.168;4.410;2024-01-15T03:24:14;6.65;;;4.35;;
57744;SDS011;58941;50.168;4.410;2024-01-15T03:26:40;6.47;;;4.00;;
57744;SDS011;58941;50.168;4.410;2024-01-15T03:29:05;7.20;;;4.57;;
57744;SDS011;58941;50.168;4.410;2024-01-15T03:31:31;6.70;;;4.45;;
57744;SDS011;58941;50.168;4.410;2024-01-15T03:33:56;6.07;;;4.00;;
57744;SDS011;58941;50.168;4.410;2024-01-15T03:36:22;5.88;;;3.58;;
57744;SDS011;58941;50.168;4.410;2024-01-15T03:38:47;6.00;;;3.85;;
57744;SDS011;58941;50.168;4.410;2024-01-15T03:41:13;6.35;;;4.15;;
57744;SDS011;58941;50.168;4.410;2024-01-15T03:43:38;7.32;;;4.25;;
57744;SDS011;58941;50.168;4.410;2024-01-15T03:46:05;6.60;;;4.68;;
57744;SDS011;58941;50.168;4.410;2024-01-15T03:48:30;6.97;;;4.53;;
57744;SDS011;58941;50.168;4.410;2024-01-15T03:50:56;4.80;;;3.88;;
57744;SDS011;58941;50.168;4.410;2024-01-15T03:53:21;7.35;;;4.75;;
57744;SDS011;58941;50.168;4.410;2024-01-15T03:55:47;6.90;;;4.20;;
57744;SDS011;58941;50.168;4.410;2024-01-15T03:58:12;6.35;;;4.03;;
57744;SDS011;58941;50.168;4.410;2024-01-15T04:00:40;6.60;;;4.28;;
57744;SDS011;58941;50.168;4.410;2024-01-15T04:03:05;5.53;;;3.70;;
57744;SDS011;58941;50.168;4.410;2024-01-15T04:05:31;5.88;;;4.13;;
57744;SDS011;58941;50.168;4.410;2024-01-15T04:07:56;6.43;;;4.55;;
57744;SDS011;58941;50.168;4.410;2024-01-15T04:10:21;6.80;;;4.40;;
57744;SDS011;58941;50.168;4.410;2024-01-15T04:12:47;5.78;;;4.15;;
57744;SDS011;58941;50.168;4.410;2024-01-15T04:15:13;5.00;;;3.78;;
57744;SDS011;58941;50.168;4.410;2024-01-15T04:17:38;7.50;;;4.60;;
57744;SDS011;58941;50.168;4.410;2024-01-15T04:20:04;5.75;;;4.50;;
57744;SDS011;58941;50.168;4.410;2024-01-15T04:22:29;5.72;;;4.10;;
57744;SDS011;58941;50.168;4.410;2024-01-15T04:24:55;5.95;;;4.00;;
57744;SDS011;58941;50.168;4.410;2024-01-15T04:27:20;5.53;;;4.07;;
57744;SDS011;58941;50.168;4.410;2024-01-15T04:29:46;6.72;;;4.50;;
57744;SDS011;58941;50.168;4.410;2024-01-15T04:32:11;6.30;;;4.18;;
57744;SDS011;58941;50.168;4.410;2024-01-15T04:34:37;6.90;;;4.25;;
57744;SDS011;58941;50.168;4.410;2024-01-15T04:37:02;6.15;;;3.70;;
57744;SDS011;58941;50.168;4.410;2024-01-15T04:39:28;5.53;;;3.95;;
57744;SDS011;58941;50.168;4.410;2024-01-15T04:41:54;7.03;;;4.32;;
57744;SDS011;58941;50.168;4.410;2024-01-15T04:44:19;5.00;;;3.80;;
57744;SDS011;58941;50.168;4.410;2024-01-15T04:46:45;6.30;;;4.47;;
57744;SDS011;58941;50.168;4.410;2024-01-15T04:49:10;4.88;;;4.07;;
57744;SDS011;58941;50.168;4.410;2024-01-15T04:51:36;5.50;;;4.05;;
57744;SDS011;58941;50.168;4.410;2024-01-15T04:54:01;5.35;;;3.70;;
57744;SDS011;58941;50.168;4.410;2024-01-15T04:56:27;5.10;;;3.80;;
57744;SDS011;58941;50.168;4.410;2024-01-15T04:58:52;5.30;;;3.88;;
57744;SDS011;58941;50.168;4.410;2024-01-15T05:01:18;5.25;;;4.40;;
57744;SDS011;58941;50.168;4.410;2024-01-15T05:03:43;6.65;;;3.92;;
57744;SDS011;58941;50.168;4.410;2024-01-15T05:06:09;5.85;;;4.18;;
57744;SDS011;58941;50.168;4.410;2024-01-15T05:08:34;5.85;;;4.10;;
57744;SDS011;58941;50.168;4.410;2024-01-15T05:11:00;4.93;;;4.00;;
57744;SDS011;58941;50.168;4.410;2024-01-15T05:13:25;5.90;;;4.40;;
57744;SDS011;58941;50.168;4.410;2024-01-15T05:15:51;6.03;;;4.30;;
57744;SDS011;58941;50.168;4.410;2024-01-15T05:18:16;5.68;;;4.20;;
57744;SDS011;58941;50.168;4.410;2024-01-15T05:20:42;5.82;;;4.35;;
57744;SDS011;58941;50.168;4.410;2024-01-15T05:23:07;5.20;;;3.85;;
57744;SDS011;58941;50.168;4.410;2024-01-15T05:25:33;6.90;;;4.63;;
57744;SDS011;58941;50.168;4.410;2024-01-15T05:27:58;5.30;;;3.90;;
57744;SDS011;58941;50.168;4.410;2024-01-15T05:30:24;5.75;;;3.75;;
57744;SDS011;58941;50.168;4.410;2024-01-15T05:32:49;5.22;;;3.58;;
57744;SDS011;58941;50.168;4.410;2024-01-15T05:35:15;4.85;;;3.67;;
57744;SDS011;58941;50.168;4.410;2024-01-15T05:37:43;5.07;;;3.63;;
57744;SDS011;58941;50.168;4.410;2024-01-15T05:40:09;4.80;;;3.60;;
57744;SDS011;58941;50.168;4.410;2024-01-15T05:42:34;5.75;;;3.25;;
57744;SDS011;58941;50.168;4.410;2024-01-15T05:45:00;4.95;;;3.60;;
57744;SDS011;58941;50.168;4.410;2024-01-15T05:47:27;4.72;;;3.47;;
57744;SDS011;58941;50.168;4.410;2024-01-15T05:49:52;4.85;;;3.30;;
57744;SDS011;58941;50.168;4.410;2024-01-15T05:52:18;4.72;;;3.55;;
57744;SDS011;58941;50.168;4.410;2024-01-15T05:54:43;5.05;;;3.95;;
57744;SDS011;58941;50.168;4.410;2024-01-15T05:57:09;4.88;;;3.42;;
57744;SDS011;58941;50.168;4.410;2024-01-15T05:59:34;5.10;;;3.65;;
57744;SDS011;58941;50.168;4.410;2024-01-15T06:02:01;6.10;;;3.88;;
57744;SDS011;58941;50.168;4.410;2024-01-15T06:04:26;5.97;;;3.63;;
57744;SDS011;58941;50.168;4.410;2024-01-15T06:06:52;4.43;;;3.60;;
57744;SDS011;58941;50.168;4.410;2024-01-15T06:09:17;5.07;;;3.60;;
57744;SDS011;58941;50.168;4.410;2024-01-15T06:11:43;5.63;;;3.72;;
57744;SDS011;58941;50.168;4.410;2024-01-15T06:14:08;5.78;;;3.65;;
57744;SDS011;58941;50.168;4.410;2024-01-15T06:16:34;4.30;;;3.30;;
57744;SDS011;58941;50.168;4.410;2024-01-15T06:18:59;4.68;;;3.33;;
57744;SDS011;58941;50.168;4.410;2024-01-15T06:21:24;5.47;;;3.42;;
57744;SDS011;58941;50.168;4.410;2024-01-15T06:23:50;4.45;;;3.20;;
57744;SDS011;58941;50.168;4.410;2024-01-15T06:26:16;4.38;;;3.33;;
57744;SDS011;58941;50.168;4.410;2024-01-15T06:28:41;4.22;;;3.25;;
57744;SDS011;58941;50.168;4.410;2024-01-15T06:31:07;4.05;;;3.25;;
57744;SDS011;58941;50.168;4.410;2024-01-15T06:33:32;4.95;;;3.20;;
57744;SDS011;58941;50.168;4.410;2024-01-15T06:35:58;4.70;;;3.47;;
57744;SDS011;58941;50.168;4.410;2024-01-15T06:38:23;4.68;;;3.58;;
57744;SDS011;58941;50.168;4.410;2024-01-15T06:40:50;4.03;;;3.00;;
57744;SDS011;58941;50.168;4.410;2024-01-15T06:43:17;5.40;;;3.67;;
57744;SDS011;58941;50.168;4.410;2024-01-15T06:45:43;4.65;;;3.55;;
57744;SDS011;58941;50.168;4.410;2024-01-15T06:48:08;4.88;;;3.30;;
57744;SDS011;58941;50.168;4.410;2024-01-15T06:50:34;4.82;;;3.45;;
57744;SDS011;58941;50.168;4.410;2024-01-15T06:52:59;4.55;;;3.17;;
57744;SDS011;58941;50.168;4.410;2024-01-15T06:55:25;4.30;;;3.15;;
57744;SDS011;58941;50.168;4.410;2024-01-15T06:57:51;4.03;;;3.38;;
57744;SDS011;58941;50.168;4.410;2024-01-15T07:00:16;4.45;;;3.25;;
57744;SDS011;58941;50.168;4.410;2024-01-15T07:02:42;4.10;;;3.00;;
57744;SDS011;58941;50.168;4.410;2024-01-15T07:05:07;4.78;;;3.03;;
57744;SDS011;58941;50.168;4.410;2024-01-15T07:07:33;5.47;;;3.38;;
57744;SDS011;58941;50.168;4.410;2024-01-15T07:09:58;4.25;;;2.70;;
57744;SDS011;58941;50.168;4.410;2024-01-15T07:12:24;4.55;;;2.97;;
57744;SDS011;58941;50.168;4.410;2024-01-15T07:14:49;5.32;;;3.35;;
57744;SDS011;58941;50.168;4.410;2024-01-15T07:17:15;4.18;;;2.80;;
57744;SDS011;58941;50.168;4.410;2024-01-15T07:19:40;3.83;;;2.80;;
57744;SDS011;58941;50.168;4.410;2024-01-15T07:22:06;4.97;;;3.45;;
57744;SDS011;58941;50.168;4.410;2024-01-15T07:24:31;3.90;;;3.17;;
57744;SDS011;58941;50.168;4.410;2024-01-15T07:26:59;4.90;;;3.47;;
57744;SDS011;58941;50.168;4.410;2024-01-15T07:29:25;7.10;;;3.55;;
57744;SDS011;58941;50.168;4.410;2024-01-15T07:31:50;4.10;;;2.97;;
57744;SDS011;58941;50.168;4.410;2024-01-15T07:34:16;3.83;;;2.85;;
57744;SDS011;58941;50.168;4.410;2024-01-15T07:36:43;4.13;;;3.00;;
57744;SDS011;58941;50.168;4.410;2024-01-15T07:39:09;4.25;;;3.03;;
57744;SDS011;58941;50.168;4.410;2024-01-15T07:41:35;4.22;;;2.90;;
57744;SDS011;58941;50.168;4.410;2024-01-15T07:44:00;4.00;;;2.95;;
57744;SDS011;58941;50.168;4.410;2024-01-15T07:46:25;3.97;;;3.03;;
57744;SDS011;58941;50.168;4.410;2024-01-15T07:48:51;4.95;;;2.80;;
57744;SDS011;58941;50.168;4.410;2024-01-15T07:51:24;4.30;;;2.90;;
57744;SDS011;58941;50.168;4.410;2024-01-15T07:53:49;4.55;;;3.00;;
57744;SDS011;58941;50.168;4.410;2024-01-15T07:56:15;3.47;;;2.72;;
57744;SDS011;58941;50.168;4.410;2024-01-15T07:58:41;3.53;;;2.90;;
57744;SDS011;58941;50.168;4.410;2024-01-15T08:01:07;4.25;;;2.95;;
57744;SDS011;58941;50.168;4.410;2024-01-15T08:03:32;3.65;;;2.83;;
57744;SDS011;58941;50.168;4.410;2024-01-15T08:05:59;3.80;;;2.95;;
57744;SDS011;58941;50.168;4.410;2024-01-15T08:08:25;4.28;;;2.70;;
57744;SDS011;58941;50.168;4.410;2024-01-15T08:10:54;4.18;;;2.80;;
57744;SDS011;58941;50.168;4.410;2024-01-15T08:13:19;4.90;;;2.67;;
57744;SDS011;58941;50.168;4.410;2024-01-15T08:15:46;4.70;;;2.72;;
57744;SDS011;58941;50.168;4.410;2024-01-15T08:18:11;3.75;;;2.53;;
57744;SDS011;58941;50.168;4.410;2024-01-15T08:20:37;3.88;;;2.60;;
57744;SDS011;58941;50.168;4.410;2024-01-15T08:23:03;5.20;;;2.90;;
57744;SDS011;58941;50.168;4.410;2024-01-15T08:25:28;4.18;;;3.42;;
57744;SDS011;58941;50.168;4.410;2024-01-15T08:27:54;4.88;;;2.70;;
57744;SDS011;58941;50.168;4.410;2024-01-15T08:30:19;5.30;;;2.83;;
57744;SDS011;58941;50.168;4.410;2024-01-15T08:32:46;3.97;;;2.80;;
57744;SDS011;58941;50.168;4.410;2024-01-15T08:35:11;3.75;;;2.50;;
57744;SDS011;58941;50.168;4.410;2024-01-15T08:37:37;4.38;;;2.60;;
57744;SDS011;58941;50.168;4.410;2024-01-15T08:40:03;4.38;;;2.92;;
57744;SDS011;58941;50.168;4.410;2024-01-15T08:42:29;4.53;;;2.78;;
57744;SDS011;58941;50.168;4.410;2024-01-15T08:44:54;3.20;;;2.25;;
57744;SDS011;58941;50.168;4.410;2024-01-15T08:47:20;3.92;;;2.67;;
57744;SDS011;58941;50.168;4.410;2024-01-15T08:49:45;3.35;;;2.42;;
57744;SDS011;58941;50.168;4.410;2024-01-15T08:52:11;4.22;;;2.50;;
57744;SDS011;58941;50.168;4.410;2024-01-15T08:54:37;3.30;;;2.60;;
57744;SDS011;58941;50.168;4.410;2024-01-15T08:57:02;3.28;;;2.50;;
57744;SDS011;58941;50.168;4.410;2024-01-15T08:59:28;3.17;;;2.30;;
57744;SDS011;58941;50.168;4.410;2024-01-15T09:01:53;3.22;;;2.42;;
57744;SDS011;58941;50.168;4.410;2024-01-15T09:04:19;3.40;;;2.25;;
57744;SDS011;58941;50.168;4.410;2024-01-15T09:06:45;2.75;;;2.40;;
57744;SDS011;58941;50.168;4.410;2024-01-15T09:09:12;4.03;;;2.30;;
57744;SDS011;58941;50.168;4.410;2024-01-15T09:11:39;2.97;;;2.28;;
57744;SDS011;58941;50.168;4.410;2024-01-15T09:14:04;3.00;;;2.13;;
57744;SDS011;58941;50.168;4.410;2024-01-15T09:16:30;3.85;;;2.33;;
57744;SDS011;58941;50.168;4.410;2024-01-15T09:18:56;3.10;;;2.10;;
57744;SDS011;58941;50.168;4.410;2024-01-15T09:21:22;3.80;;;2.35;;
57744;SDS011;58941;50.168;4.410;2024-01-15T09:23:50;2.80;;;2.17;;
57744;SDS011;58941;50.168;4.410;2024-01-15T09:26:15;3.00;;;2.10;;
57744;SDS011;58941;50.168;4.410;2024-01-15T09:28:41;4.45;;;2.42;;
57744;SDS011;58941;50.168;4.410;2024-01-15T09:31:07;3.88;;;2.40;;
57744;SDS011;58941;50.168;4.410;2024-01-15T09:33:32;2.97;;;2.28;;
57744;SDS011;58941;50.168;4.410;2024-01-15T09:36:01;3.80;;;2.15;;
57744;SDS011;58941;50.168;4.410;2024-01-15T09:38:27;3.47;;;2.35;;
57744;SDS011;58941;50.168;4.410;2024-01-15T09:40:52;3.90;;;2.17;;
57744;SDS011;58941;50.168;4.410;2024-01-15T09:43:18;3.33;;;2.22;;
57744;SDS011;58941;50.168;4.410;2024-01-15T09:45:43;7.05;;;2.53;;
57744;SDS011;58941;50.168;4.410;2024-01-15T09:48:09;5.70;;;2.70;;
57744;SDS011;58941;50.168;4.410;2024-01-15T09:50:35;4.30;;;2.45;;
57744;SDS011;58941;50.168;4.410;2024-01-15T09:53:01;3.58;;;2.30;;
57744;SDS011;58941;50.168;4.410;2024-01-15T09:55:26;3.67;;;2.20;;
57744;SDS011;58941;50.168;4.410;2024-01-15T09:57:52;5.10;;;2.88;;
57744;SDS011;58941;50.168;4.410;2024-01-15T10:00:18;3.83;;;2.33;;
57744;SDS011;58941;50.168;4.410;2024-01-15T10:02:44;5.05;;;2.35;;
57744;SDS011;58941;50.168;4.410;2024-01-15T10:05:11;3.42;;;2.50;;
57744;SDS011;58941;50.168;4.410;2024-01-15T10:07:37;4.88;;;2.92;;
57744;SDS011;58941;50.168;4.410;2024-01-15T10:10:02;4.05;;;2.65;;
57744;SDS011;58941;50.168;4.410;2024-01-15T10:12:32;3.78;;;2.38;;
57744;SDS011;58941;50.168;4.410;2024-01-15T10:14:58;4.70;;;3.30;;
57744;SDS011;58941;50.168;4.410;2024-01-15T10:17:24;4.65;;;2.80;;
57744;SDS011;58941;50.168;4.410;2024-01-15T10:19:50;4.70;;;2.50;;
57744;SDS011;58941;50.168;4.410;2024-01-15T10:22:16;4.75;;;3.47;;
57744;SDS011;58941;50.168;4.410;2024-01-15T10:24:43;5.22;;;2.70;;
57744;SDS011;58941;50.168;4.410;2024-01-15T10:27:09;4.65;;;3.30;;
57744;SDS011;58941;50.168;4.410;2024-01-15T10:29:35;4.78;;;3.00;;
57744;SDS011;58941;50.168;4.410;2024-01-15T10:32:01;5.53;;;2.50;;
57744;SDS011;58941;50.168;4.410;2024-01-15T10:34:26;4.90;;;2.80;;
57744;SDS011;58941;50.168;4.410;2024-01-15T10:36:52;6.30;;;2.90;;
57744;SDS011;58941;50.168;4.410;2024-01-15T10:39:24;4.63;;;3.28;;
57744;SDS011;58941;50.168;4.410;2024-01-15T10:41:50;5.47;;;2.90;;
57744;SDS011;58941;50.168;4.410;2024-01-15T10:44:19;6.10;;;2.88;;
57744;SDS011;58941;50.168;4.410;2024-01-15T10:46:45;5.07;;;2.72;;
57744;SDS011;58941;50.168;4.410;2024-01-15T10:49:11;5.85;;;3.13;;
57744;SDS011;58941;50.168;4.410;2024-01-15T10:51:37;7.95;;;3.10;;
57744;SDS011;58941;50.168;4.410;2024-01-15T10:54:02;6.40;;;3.40;;
57744;SDS011;58941;50.168;4.410;2024-01-15T10:56:28;4.57;;;3.05;;
57744;SDS011;58941;50.168;4.410;2024-01-15T10:58:55;6.45;;;3.30;;
57744;SDS011;58941;50.168;4.410;2024-01-15T11:01:21;6.75;;;3.58;;
57744;SDS011;58941;50.168;4.410;2024-01-15T11:03:47;7.55;;;4.30;;
57744;SDS011;58941;50.168;4.410;2024-01-15T11:06:19;6.13;;;3.10;;
57744;SDS011;58941;50.168;4.410;2024-01-15T11:08:51;6.15;;;3.15;;
57744;SDS011;58941;50.168;4.410;2024-01-15T11:11:17;6.80;;;3.75;;
57744;SDS011;58941;50.168;4.410;2024-01-15T11:13:43;5.05;;;3.50;;
57744;SDS011;58941;50.168;4.410;2024-01-15T11:16:12;5.60;;;3.47;;
57744;SDS011;58941;50.168;4.410;2024-01-15T11:18:41;4.57;;;3.00;;
57744;SDS011;58941;50.168;4.410;2024-01-15T11:23:45;6.93;;;3.15;;
57744;SDS011;58941;50.168;4.410;2024-01-15T11:28:58;5.68;;;2.80;;
57744;SDS011;58941;50.168;4.410;2024-01-15T11:34:06;6.27;;;3.07;;
57744;SDS011;58941;50.168;4.410;2024-01-15T11:41:57;7.35;;;3.05;;
57744;SDS011;58941;50.168;4.410;2024-01-15T11:44:22;4.43;;;3.03;;
57744;SDS011;58941;50.168;4.410;2024-01-15T11:46:57;6.10;;;2.97;;
57744;SDS011;58941;50.168;4.410;2024-01-15T11:49:32;5.75;;;2.75;;
57744;SDS011;58941;50.168;4.410;2024-01-15T11:52:04;4.63;;;2.85;;
57744;SDS011;58941;50.168;4.410;2024-01-15T11:54:30;4.85;;;2.90;;
57744;SDS011;58941;50.168;4.410;2024-01-15T11:56:59;7.65;;;3.17;;
57744;SDS011;58941;50.168;4.410;2024-01-15T11:59:25;7.15;;;2.58;;
57744;SDS011;58941;50.168;4.410;2024-01-15T12:01:51;5.15;;;2.92;;
57744;SDS011;58941;50.168;4.410;2024-01-15T12:04:16;6.60;;;2.90;;
57744;SDS011;58941;50.168;4.410;2024-01-15T12:06:44;4.13;;;2.20;;
57744;SDS011;58941;50.168;4.410;2024-01-15T12:09:10;7.63;;;3.05;;
57744;SDS011;58941;50.168;4.410;2024-01-15T12:11:36;5.88;;;2.78;;
57744;SDS011;58941;50.168;4.410;2024-01-15T12:14:01;4.80;;;2.60;;
57744;SDS011;58941;50.168;4.410;2024-01-15T12:16:27;5.18;;;2.63;;
57744;SDS011;58941;50.168;4.410;2024-01-15T12:18:53;4.93;;;2.50;;
57744;SDS011;58941;50.168;4.410;2024-01-15T12:21:18;4.45;;;2.63;;
57744;SDS011;58941;50.168;4.410;2024-01-15T12:23:51;5.47;;;2.60;;
57744;SDS011;58941;50.168;4.410;2024-01-15T12:26:17;4.72;;;2.58;;
57744;SDS011;58941;50.168;4.410;2024-01-15T12:28:43;5.85;;;2.40;;
57744;SDS011;58941;50.168;4.410;2024-01-15T12:31:09;3.50;;;2.40;;
57744;SDS011;58941;50.168;4.410;2024-01-15T12:33:34;4.10;;;2.03;;
57744;SDS011;58941;50.168;4.410;2024-01-15T12:36:00;4.80;;;2.08;;
57744;SDS011;58941;50.168;4.410;2024-01-15T12:38:25;4.35;;;2.42;;
57744;SDS011;58941;50.168;4.410;2024-01-15T12:40:53;4.90;;;2.15;;
57744;SDS011;58941;50.168;4.410;2024-01-15T12:43:19;3.88;;;2.10;;
57744;SDS011;58941;50.168;4.410;2024-01-15T12:45:45;3.08;;;1.70;;
57744;SDS011;58941;50.168;4.410;2024-01-15T12:48:10;4.72;;;2.03;;
57744;SDS011;58941;50.168;4.410;2024-01-15T12:50:38;3.25;;;2.13;;
57744;SDS011;58941;50.168;4.410;2024-01-15T12:53:04;2.95;;;2.08;;
57744;SDS011;58941;50.168;4.410;2024-01-15T12:55:29;3.95;;;2.35;;
57744;SDS011;58941;50.168;4.410;2024-01-15T12:57:55;3.33;;;2.10;;
57744;SDS011;58941;50.168;4.410;2024-01-15T13:00:20;4.03;;;2.28;;
57744;SDS011;58941;50.168;4.410;2024-01-15T13:02:46;6.03;;;2.40;;
57744;SDS011;58941;50.168;4.410;2024-01-15T13:05:11;3.75;;;1.83;;
57744;SDS011;58941;50.168;4.410;2024-01-15T13:07:37;3.83;;;2.03;;
57744;SDS011;58941;50.168;4.410;2024-01-15T13:10:03;3.42;;;1.80;;
57744;SDS011;58941;50.168;4.410;2024-01-15T13:12:28;2.80;;;1.70;;
57744;SDS011;58941;50.168;4.410;2024-01-15T13:14:54;2.92;;;1.90;;
57744;SDS011;58941;50.168;4.410;2024-01-15T13:17:19;3.58;;;1.90;;
57744;SDS011;58941;50.168;4.410;2024-01-15T13:19:46;3.65;;;1.70;;
57744;SDS011;58941;50.168;4.410;2024-01-15T13:22:12;3.60;;;1.70;;
57744;SDS011;58941;50.168;4.410;2024-01-15T13:24:39;2.88;;;1.75;;
57744;SDS011;58941;50.168;4.410;2024-01-15T13:27:04;2.50;;;1.73;;
57744;SDS011;58941;50.168;4.410;2024-01-15T13:29:31;3.80;;;1.55;;
57744;SDS011;58941;50.168;4.410;2024-01-15T13:31:57;3.78;;;1.70;;
57744;SDS011;58941;50.168;4.410;2024-01-15T13:34:22;3.00;;;1.85;;
57744;SDS011;58941;50.168;4.410;2024-01-15T13:36:48;3.55;;;1.70;;
57744;SDS011;58941;50.168;4.410;2024-01-15T13:39:15;3.65;;;1.80;;
57744;SDS011;58941;50.168;4.410;2024-01-15T13:41:45;2.15;;;1.60;;
57744;SDS011;58941;50.168;4.410;2024-01-15T13:44:10;2.58;;;1.38;;
57744;SDS011;58941;50.168;4.410;2024-01-15T13:46:36;3.40;;;1.40;;
57744;SDS011;58941;50.168;4.410;2024-01-15T13:49:01;2.80;;;1.50;;
57744;SDS011;58941;50.168;4.410;2024-01-15T13:51:27;3.45;;;1.65;;
57744;SDS011;58941;50.168;4.410;2024-01-15T13:53:52;4.30;;;1.92;;
57744;SDS011;58941;50.168;4.410;2024-01-15T13:56:18;2.60;;;1.60;;
57744;SDS011;58941;50.168;4.410;2024-01-15T13:58:44;3.17;;;1.52;;
57744;SDS011;58941;50.168;4.410;2024-01-15T14:01:09;1.92;;;1.42;;
57744;SDS011;58941;50.168;4.410;2024-01-15T14:03:36;3.13;;;1.60;;
57744;SDS011;58941;50.168;4.410;2024-01-15T14:06:01;2.20;;;1.30;;
57744;SDS011;58941;50.168;4.410;2024-01-15T14:08:37;2.28;;;1.27;;
57744;SDS011;58941;50.168;4.410;2024-01-15T14:11:02;3.40;;;1.50;;
57744;SDS011;58941;50.168;4.410;2024-01-15T14:13:28;2.78;;;1.50;;
57744;SDS011;58941;50.168;4.410;2024-01-15T14:15:54;3.63;;;1.40;;
57744;SDS011;58941;50.168;4.410;2024-01-15T14:18:20;2.53;;;1.58;;
57744;SDS011;58941;50.168;4.410;2024-01-15T14:20:46;2.95;;;1.80;;
57744;SDS011;58941;50.168;4.410;2024-01-15T14:23:12;2.22;;;1.40;;
57744;SDS011;58941;50.168;4.410;2024-01-15T14:25:38;4.53;;;1.40;;
57744;SDS011;58941;50.168;4.410;2024-01-15T14:28:04;1.90;;;1.40;;
57744;SDS011;58941;50.168;4.410;2024-01-15T14:30:29;2.10;;;1.42;;
57744;SDS011;58941;50.168;4.410;2024-01-15T14:32:55;2.80;;;1.40;;
57744;SDS011;58941;50.168;4.410;2024-01-15T14:35:20;3.42;;;1.75;;
57744;SDS011;58941;50.168;4.410;2024-01-15T14:37:45;2.25;;;1.20;;
57744;SDS011;58941;50.168;4.410;2024-01-15T14:40:13;3.60;;;1.40;;
57744;SDS011;58941;50.168;4.410;2024-01-15T14:42:41;3.30;;;1.35;;
57744;SDS011;58941;50.168;4.410;2024-01-15T14:45:06;2.45;;;1.42;;
57744;SDS011;58941;50.168;4.410;2024-01-15T14:47:40;2.63;;;1.30;;
57744;SDS011;58941;50.168;4.410;2024-01-15T14:50:06;2.10;;;1.20;;
57744;SDS011;58941;50.168;4.410;2024-01-15T14:52:32;3.85;;;1.55;;